createdAt,value
2023-01-09T00:00:04.310Z,26.93
2023-01-09T00:02:30.844Z,25.53
2023-01-09T00:04:57.369Z,27.37
2023-01-09T00:07:25.102Z,27.10
2023-01-09T00:09:51.645Z,25.63
2023-01-09T00:12:19.402Z,25.67
2023-01-09T00:14:45.968Z,26.83
2023-01-09T00:17:12.439Z,26.73
2023-01-09T00:19:38.899Z,28.63
2023-01-09T00:22:06.492Z,26.53
2023-01-09T00:24:33.031Z,29.00
2023-01-09T00:26:59.709Z,27.13
2023-01-09T00:29:26.175Z,29.87
2023-01-09T00:31:52.781Z,27.13
2023-01-09T00:34:19.239Z,26.60
2023-01-09T00:36:45.776Z,28.67
2023-01-09T00:39:12.311Z,28.80
2023-01-09T00:41:43.452Z,27.77
2023-01-09T00:44:17.963Z,28.83
2023-01-09T00:46:47.113Z,28.23
2023-01-09T00:49:14.187Z,27.00
2023-01-09T00:51:41.393Z,28.20
2023-01-09T00:54:08.728Z,28.77
2023-01-09T00:56:36.109Z,27.20
2023-01-09T00:59:03.146Z,27.70
2023-01-09T01:01:29.979Z,25.13
2023-01-09T01:03:56.791Z,27.20
2023-01-09T01:06:41.679Z,27.97
2023-01-09T01:09:08.125Z,28.83
2023-01-09T01:11:34.695Z,26.30
2023-01-09T01:14:01.395Z,27.17
2023-01-09T01:16:27.931Z,26.83
2023-01-09T01:18:54.438Z,27.40
2023-01-09T01:21:20.946Z,28.60
2023-01-09T01:23:47.507Z,28.67
2023-01-09T01:26:14.945Z,26.53
2023-01-09T01:28:41.563Z,28.80
2023-01-09T01:31:08.345Z,27.40
2023-01-09T01:33:34.973Z,30.10
2023-01-09T01:36:01.452Z,24.33
2023-01-09T01:38:28.598Z,25.50
2023-01-09T01:40:55.458Z,26.33
2023-01-09T01:43:21.984Z,25.70
2023-01-09T01:45:48.475Z,25.50
2023-01-09T01:48:24.005Z,26.37
2023-01-09T01:50:52.612Z,27.43
2023-01-09T01:53:21.266Z,25.07
2023-01-09T01:56:00.155Z,24.67
2023-01-09T01:58:27.343Z,23.80
2023-01-09T02:00:54.181Z,28.07
2023-01-09T02:03:22.966Z,27.57
2023-01-09T02:05:49.677Z,25.43
2023-01-09T02:08:16.850Z,26.10
2023-01-09T02:10:44.064Z,26.70
2023-01-09T02:13:10.970Z,27.20
2023-01-09T02:15:43.564Z,25.80
2023-01-09T02:18:18.808Z,27.80
2023-01-09T02:20:47.877Z,28.07
2023-01-09T02:23:26.772Z,26.57
2023-01-09T02:26:04.990Z,28.43
2023-01-09T02:28:50.062Z,27.93
2023-01-09T02:31:16.584Z,27.57
2023-01-09T02:33:51.318Z,27.60
2023-01-09T02:36:24.212Z,28.50
2023-01-09T02:38:53.718Z,29.03
2023-01-09T02:41:29.251Z,29.67
2023-01-09T02:44:22.063Z,30.47
2023-01-09T02:46:59.299Z,29.07
2023-01-09T02:49:25.911Z,27.23
2023-01-09T02:51:53.939Z,32.37
2023-01-09T02:54:27.108Z,28.27
2023-01-09T02:56:53.554Z,28.70
2023-01-09T02:59:32.140Z,29.07
2023-01-09T03:01:58.732Z,27.90
2023-01-09T03:04:41.993Z,26.13
2023-01-09T03:07:19.685Z,26.93
2023-01-09T03:09:48.010Z,28.03
2023-01-09T03:12:18.312Z,27.83
2023-01-09T03:14:47.134Z,27.73
2023-01-09T03:17:16.151Z,26.27
2023-01-09T03:19:43.247Z,27.67
2023-01-09T03:22:09.773Z,25.80
2023-01-09T03:24:36.343Z,25.07
2023-01-09T03:27:02.878Z,23.53
2023-01-09T03:29:29.703Z,26.40
2023-01-09T03:31:56.332Z,26.07
2023-01-09T03:34:22.788Z,27.80
2023-01-09T03:36:49.263Z,26.57
2023-01-09T03:39:15.763Z,25.53
2023-01-09T03:41:42.219Z,26.60
2023-01-09T03:44:08.657Z,25.47
2023-01-09T03:46:35.167Z,25.90
2023-01-09T03:49:01.671Z,27.27
2023-01-09T03:51:28.166Z,27.03
2023-01-09T03:53:54.651Z,26.20
2023-01-09T03:56:21.088Z,27.40
2023-01-09T03:58:50.157Z,26.63
2023-01-09T04:01:16.746Z,27.17
2023-01-09T04:03:43.328Z,28.20
2023-01-09T04:06:09.844Z,26.57
2023-01-09T04:08:36.412Z,26.93
2023-01-09T04:11:02.945Z,26.40
2023-01-09T04:13:29.450Z,27.43
2023-01-09T04:15:55.972Z,29.40
2023-01-09T04:18:22.520Z,30.13
2023-01-09T04:20:49.393Z,25.93
2023-01-09T04:23:16.603Z,28.97
2023-01-09T04:25:43.091Z,26.77
2023-01-09T04:28:09.663Z,24.80
2023-01-09T04:30:36.177Z,26.67
2023-01-09T04:33:02.620Z,26.87
2023-01-09T04:35:29.087Z,26.33
2023-01-09T04:37:55.605Z,26.63
2023-01-09T04:40:22.067Z,26.40
2023-01-09T04:42:48.657Z,27.20
2023-01-09T04:45:17.213Z,28.97
2023-01-09T04:47:44.324Z,26.73
2023-01-09T04:50:11.781Z,27.83
2023-01-09T04:52:39.072Z,29.73
2023-01-09T04:55:06.243Z,25.70
2023-01-09T04:57:32.758Z,27.57
2023-01-09T04:59:59.245Z,26.13
2023-01-09T05:02:25.760Z,29.67
2023-01-09T05:04:58.518Z,27.17
2023-01-09T05:07:24.995Z,28.63
2023-01-09T05:09:51.495Z,27.10
2023-01-09T05:12:17.987Z,27.07
2023-01-09T05:14:44.419Z,27.30
2023-01-09T05:17:10.881Z,26.40
2023-01-09T05:19:37.373Z,29.60
2023-01-09T05:22:03.821Z,27.57
2023-01-09T05:24:30.295Z,27.50
2023-01-09T05:26:56.870Z,27.57
2023-01-09T05:29:23.370Z,25.83
2023-01-09T05:31:49.954Z,26.37
2023-01-09T05:34:16.469Z,29.17
2023-01-09T05:36:42.926Z,28.50
2023-01-09T05:39:09.476Z,26.87
2023-01-09T05:41:35.959Z,27.67
2023-01-09T05:44:02.445Z,28.07
2023-01-09T05:46:28.909Z,28.27
2023-01-09T05:48:55.399Z,28.97
2023-01-09T05:51:21.902Z,28.17
2023-01-09T05:53:48.428Z,27.57
2023-01-09T05:56:15.061Z,26.80
2023-01-09T05:58:41.812Z,25.97
2023-01-09T06:01:08.360Z,27.67
2023-01-09T06:03:34.887Z,29.53
2023-01-09T06:06:01.357Z,27.60
2023-01-09T06:08:27.838Z,27.20
2023-01-09T06:10:54.292Z,28.53
2023-01-09T06:13:20.834Z,27.53
2023-01-09T06:15:47.973Z,27.33
2023-01-09T06:18:14.557Z,27.40
2023-01-09T06:20:41.091Z,29.13
2023-01-09T06:23:07.712Z,28.17
2023-01-09T06:25:34.316Z,28.60
2023-01-09T06:28:00.762Z,33.27
2023-01-09T06:30:27.202Z,32.27
2023-01-09T06:32:53.738Z,35.60
2023-01-09T06:35:20.883Z,31.00
2023-01-09T06:37:48.405Z,28.30
2023-01-09T06:40:14.998Z,27.47
2023-01-09T06:42:45.331Z,26.87
2023-01-09T06:45:12.068Z,28.07
2023-01-09T06:47:39.339Z,30.10
2023-01-09T06:50:06.261Z,26.13
2023-01-09T06:52:32.793Z,28.73
2023-01-09T06:54:59.234Z,26.90
2023-01-09T06:57:25.668Z,27.53
2023-01-09T06:59:52.120Z,28.67
2023-01-09T07:02:19.814Z,27.53
2023-01-09T07:04:46.370Z,27.23
2023-01-09T07:07:13.502Z,29.53
2023-01-09T07:09:40.008Z,72.17
2023-01-09T07:12:06.589Z,34.37
2023-01-09T07:14:33.117Z,29.37
2023-01-09T07:16:59.681Z,29.30
2023-01-09T07:19:26.133Z,27.90
2023-01-09T07:21:52.707Z,28.07
2023-01-09T07:24:19.169Z,31.63
2023-01-09T07:26:45.572Z,31.80
2023-01-09T07:29:13.077Z,31.17
2023-01-09T07:31:39.661Z,33.73
2023-01-09T07:34:06.131Z,33.73
2023-01-09T07:36:32.584Z,33.63
2023-01-09T07:38:59.206Z,32.40
2023-01-09T07:41:25.660Z,48.00
2023-01-09T07:43:52.146Z,35.77
2023-01-09T07:46:18.670Z,39.37
2023-01-09T07:48:45.209Z,34.00
2023-01-09T07:51:11.838Z,38.50
2023-01-09T07:53:38.347Z,35.87
2023-01-09T07:56:05.007Z,34.67
2023-01-09T07:58:31.512Z,32.57
2023-01-09T08:00:58.066Z,33.07
2023-01-09T08:03:24.603Z,31.37
2023-01-09T08:05:51.681Z,30.73
2023-01-09T08:08:18.284Z,29.33
2023-01-09T08:10:44.799Z,29.03
2023-01-09T08:13:11.319Z,30.80
2023-01-09T08:15:38.003Z,31.47
2023-01-09T08:18:04.470Z,29.43
2023-01-09T08:20:31.258Z,30.67
2023-01-09T08:22:57.794Z,30.00
2023-01-09T08:25:24.284Z,32.80
2023-01-09T08:27:50.811Z,28.27
2023-01-09T08:30:17.966Z,47.57
2023-01-09T08:32:48.319Z,37.50
2023-01-09T08:35:14.919Z,27.40
2023-01-09T08:37:43.653Z,28.17
2023-01-09T08:40:10.435Z,31.40
2023-01-09T08:42:55.713Z,27.77
2023-01-09T08:45:40.868Z,27.10
2023-01-09T08:48:07.834Z,28.83
2023-01-09T08:50:34.491Z,26.47
2023-01-09T08:53:00.950Z,28.70
2023-01-09T08:55:27.409Z,27.20
2023-01-09T08:57:54.369Z,28.07
2023-01-09T09:00:22.321Z,29.00
2023-01-09T09:02:53.001Z,28.17
2023-01-09T09:05:20.234Z,30.43
2023-01-09T09:07:50.151Z,29.87
2023-01-09T09:10:17.481Z,25.90
2023-01-09T09:12:44.213Z,25.40
2023-01-09T09:15:16.220Z,26.53
2023-01-09T09:17:43.339Z,29.03
2023-01-09T09:20:10.408Z,28.47
2023-01-09T09:22:36.951Z,28.60
2023-01-09T09:25:04.868Z,27.17
2023-01-09T09:27:31.888Z,27.97
2023-01-09T09:29:58.390Z,27.23
2023-01-09T09:32:24.959Z,26.70
2023-01-09T09:34:51.438Z,27.03
2023-01-09T09:37:17.913Z,30.27
2023-01-09T09:39:44.465Z,29.00
2023-01-09T09:42:32.651Z,31.80
2023-01-09T09:45:07.190Z,27.63
2023-01-09T09:47:43.439Z,29.77
2023-01-09T09:50:13.060Z,49.73
2023-01-09T09:52:45.524Z,38.43
2023-01-09T09:55:24.252Z,29.60
2023-01-09T09:57:51.678Z,29.17
2023-01-09T10:00:19.898Z,32.67
2023-01-09T10:02:50.539Z,28.87
2023-01-09T10:05:20.304Z,33.27
2023-01-09T10:07:51.193Z,29.23
2023-01-09T10:10:32.825Z,29.83
2023-01-09T10:13:00.028Z,28.10
2023-01-09T10:15:26.645Z,29.70
2023-01-09T10:18:12.284Z,31.53
2023-01-09T10:20:44.633Z,30.87
2023-01-09T10:23:20.674Z,32.03
2023-01-09T10:26:11.076Z,30.80
2023-01-09T10:28:56.558Z,34.43
2023-01-09T10:31:40.947Z,35.17
2023-01-09T10:34:23.630Z,29.63
2023-01-09T10:36:53.096Z,31.37
2023-01-09T10:39:35.959Z,32.53
2023-01-09T10:42:08.429Z,32.93
2023-01-09T10:44:37.800Z,31.53
2023-01-09T10:47:11.127Z,34.67
2023-01-09T10:49:38.551Z,32.30
2023-01-09T10:52:05.493Z,32.97
2023-01-09T10:54:32.212Z,35.60
2023-01-09T10:57:02.412Z,36.70
2023-01-09T10:59:30.838Z,34.17
2023-01-09T11:01:57.618Z,33.23
2023-01-09T11:04:29.669Z,34.07
2023-01-09T11:06:58.720Z,34.97
2023-01-09T11:09:25.199Z,34.63
2023-01-09T11:11:52.831Z,36.67
2023-01-09T11:14:31.608Z,35.57
2023-01-09T11:17:00.406Z,34.50
2023-01-09T11:19:27.061Z,33.73
2023-01-09T11:22:14.735Z,32.90
2023-01-09T11:24:41.251Z,34.53
2023-01-09T11:27:13.828Z,33.47
2023-01-09T11:29:43.481Z,30.43
2023-01-09T11:32:22.097Z,31.67
2023-01-09T11:34:48.723Z,34.90
2023-01-09T11:37:23.004Z,34.57
2023-01-09T11:39:49.486Z,35.07
2023-01-09T11:42:43.137Z,32.03
2023-01-09T11:45:30.737Z,31.73
2023-01-09T11:47:58.107Z,33.50
2023-01-09T11:50:25.886Z,36.80
2023-01-09T11:53:12.665Z,33.80
2023-01-09T11:55:42.687Z,37.40
2023-01-09T11:58:17.134Z,36.27
2023-01-09T12:01:03.879Z,41.10
2023-01-09T12:03:48.612Z,35.70
2023-01-09T12:06:23.844Z,35.73
2023-01-09T12:08:58.141Z,36.23
2023-01-09T12:11:30.620Z,36.50
2023-01-09T12:14:15.899Z,36.00
2023-01-09T12:16:54.211Z,37.13
2023-01-09T12:19:29.790Z,36.43
2023-01-09T12:22:07.426Z,38.70
2023-01-09T12:24:40.244Z,40.57
2023-01-09T12:27:09.937Z,36.80
2023-01-09T12:29:37.903Z,42.73
2023-01-09T12:32:11.619Z,36.13
2023-01-09T12:34:50.225Z,43.37
2023-01-09T12:37:20.405Z,43.40
2023-01-09T12:39:55.571Z,39.40
2023-01-09T12:42:25.052Z,37.27
2023-01-09T12:44:55.198Z,37.83
2023-01-09T12:47:30.587Z,37.30
2023-01-09T12:50:02.723Z,38.07
2023-01-09T12:52:34.905Z,35.67
2023-01-09T12:55:13.610Z,36.93
2023-01-09T12:57:51.114Z,37.87
2023-01-09T13:00:26.286Z,38.70
2023-01-09T13:03:11.333Z,37.73
2023-01-09T13:05:49.458Z,38.57
2023-01-09T13:08:16.236Z,35.87
2023-01-09T13:10:45.811Z,36.23
2023-01-09T13:13:32.543Z,38.87
2023-01-09T13:16:01.907Z,33.77
2023-01-09T13:18:41.135Z,35.03
2023-01-09T13:21:08.113Z,37.27
2023-01-09T13:23:43.015Z,35.20
2023-01-09T13:26:16.091Z,35.17
2023-01-09T13:28:47.082Z,32.63
2023-01-09T13:31:21.304Z,34.47
2023-01-09T13:33:53.367Z,49.10
2023-01-09T13:36:23.243Z,35.83
2023-01-09T13:38:50.631Z,32.77
2023-01-09T13:41:36.814Z,32.37
2023-01-09T13:44:07.844Z,30.17
2023-01-09T13:46:36.843Z,26.03
2023-01-09T13:49:03.895Z,25.63
2023-01-09T13:51:39.622Z,28.57
2023-01-09T13:54:08.635Z,31.40
2023-01-09T13:56:55.069Z,32.63
2023-01-09T13:59:28.440Z,26.87
2023-01-09T14:01:54.986Z,28.10
2023-01-09T14:04:23.212Z,27.10
2023-01-09T14:07:08.462Z,26.07
2023-01-09T14:09:37.660Z,28.87
2023-01-09T14:12:05.044Z,27.73
2023-01-09T14:14:34.088Z,27.90
2023-01-09T14:17:03.626Z,27.17
2023-01-09T14:19:34.999Z,28.23
2023-01-09T14:22:02.052Z,27.20
2023-01-09T14:24:30.877Z,26.27
2023-01-09T14:26:58.871Z,28.70
2023-01-09T14:29:28.558Z,26.40
2023-01-09T14:32:15.298Z,27.90
2023-01-09T14:34:42.557Z,27.63
2023-01-09T14:37:12.283Z,29.27
2023-01-09T14:39:40.363Z,29.67
2023-01-09T14:42:15.826Z,33.37
2023-01-09T14:45:02.407Z,26.63
2023-01-09T14:47:31.806Z,30.53
2023-01-09T14:50:04.465Z,30.87
2023-01-09T14:52:33.135Z,31.07
2023-01-09T14:55:01.161Z,32.47
2023-01-09T14:57:31.692Z,51.93
2023-01-09T14:59:59.206Z,38.47
2023-01-09T15:02:28.083Z,32.63
2023-01-09T15:04:56.353Z,31.17
2023-01-09T15:07:26.019Z,30.60
2023-01-09T15:09:52.556Z,32.47
2023-01-09T15:12:20.874Z,32.57
2023-01-09T15:14:50.338Z,30.50
2023-01-09T15:17:19.848Z,32.17
2023-01-09T15:19:46.678Z,29.87
2023-01-09T15:22:23.703Z,31.93
2023-01-09T15:24:50.651Z,31.43
2023-01-09T15:27:22.007Z,31.00
2023-01-09T15:29:48.735Z,34.90
2023-01-09T15:32:15.293Z,35.40
2023-01-09T15:34:43.728Z,34.90
2023-01-09T15:37:38.821Z,32.17
2023-01-09T15:40:07.510Z,34.13
2023-01-09T15:42:57.016Z,34.77
2023-01-09T15:45:43.196Z,32.37
2023-01-09T15:48:20.703Z,28.87
2023-01-09T15:50:49.895Z,27.93
2023-01-09T15:53:17.773Z,29.63
2023-01-09T15:55:46.507Z,31.97
2023-01-09T15:58:29.503Z,30.03
2023-01-09T16:01:00.539Z,41.27
2023-01-09T16:03:27.240Z,30.17
2023-01-09T16:05:57.985Z,25.60
2023-01-09T16:08:29.724Z,26.87
2023-01-09T16:10:57.902Z,25.00
2023-01-09T16:13:25.467Z,24.13
2023-01-09T16:15:52.758Z,22.30
2023-01-09T16:18:21.382Z,24.13
2023-01-09T16:20:48.802Z,25.77
2023-01-09T16:23:18.272Z,22.50
2023-01-09T16:25:44.730Z,23.50
2023-01-09T16:28:23.259Z,23.77
2023-01-09T16:31:01.689Z,21.43
2023-01-09T16:33:29.475Z,23.07
2023-01-09T16:35:58.500Z,24.70
2023-01-09T16:38:26.060Z,21.23
2023-01-09T16:41:19.879Z,21.67
2023-01-09T16:43:46.942Z,24.30
2023-01-09T16:46:15.268Z,23.00
2023-01-09T16:48:42.358Z,23.37
2023-01-09T16:51:16.336Z,65.17
2023-01-09T16:53:43.168Z,35.83
2023-01-09T16:56:23.748Z,40.53
2023-01-09T16:58:50.923Z,28.00
2023-01-09T17:01:18.345Z,24.67
2023-01-09T17:03:45.034Z,22.70
2023-01-09T17:06:28.764Z,25.07
2023-01-09T17:08:55.483Z,24.30
2023-01-09T17:11:23.582Z,23.37
2023-01-09T17:13:50.492Z,24.93
2023-01-09T17:16:17.457Z,23.80
2023-01-09T17:18:43.964Z,22.63
2023-01-09T17:21:14.633Z,20.00
2023-01-09T17:23:41.166Z,21.57
2023-01-09T17:26:28.869Z,21.40
2023-01-09T17:28:55.322Z,20.47
2023-01-09T17:31:21.792Z,19.50
2023-01-09T17:33:48.421Z,21.87
2023-01-09T17:36:19.273Z,21.13
2023-01-09T17:38:45.845Z,21.03
2023-01-09T17:41:13.069Z,19.37
2023-01-09T17:43:42.214Z,21.70
2023-01-09T17:46:13.996Z,23.60
2023-01-09T17:48:40.554Z,23.00
2023-01-09T17:51:08.787Z,20.37
2023-01-09T17:53:35.377Z,20.43
2023-01-09T17:56:02.170Z,21.70
2023-01-09T17:58:30.409Z,22.03
2023-01-09T18:00:57.901Z,20.83
2023-01-09T18:03:26.454Z,22.37
2023-01-09T18:05:53.229Z,19.47
2023-01-09T18:08:19.830Z,19.37
2023-01-09T18:10:48.575Z,17.63
2023-01-09T18:13:15.973Z,17.73
2023-01-09T18:15:46.001Z,20.17
2023-01-09T18:18:13.106Z,17.93
2023-01-09T18:20:40.552Z,18.63
2023-01-09T18:23:07.870Z,28.47
2023-01-09T18:25:35.174Z,25.60
2023-01-09T18:28:03.303Z,21.33
2023-01-09T18:30:30.067Z,20.03
2023-01-09T18:32:56.816Z,21.20
2023-01-09T18:35:23.441Z,26.93
2023-01-09T18:37:50.228Z,26.00
2023-01-09T18:40:17.513Z,32.50
2023-01-09T18:42:46.260Z,29.03
2023-01-09T18:45:12.834Z,23.10
2023-01-09T18:47:39.392Z,26.23
2023-01-09T18:50:06.160Z,24.57
2023-01-09T18:52:32.794Z,25.07
2023-01-09T18:54:59.495Z,24.40
2023-01-09T18:57:26.049Z,27.77
2023-01-09T18:59:52.569Z,19.10
2023-01-09T19:02:20.102Z,17.27
2023-01-09T19:04:46.809Z,20.67
2023-01-09T19:07:13.497Z,20.87
2023-01-09T19:09:40.335Z,21.07
2023-01-09T19:12:07.187Z,23.07
2023-01-09T19:14:33.832Z,21.03
2023-01-09T19:17:01.428Z,25.97
2023-01-09T19:19:30.212Z,23.23
2023-01-09T19:21:57.655Z,26.13
2023-01-09T19:24:24.491Z,21.57
2023-01-09T19:26:51.488Z,21.13
2023-01-09T19:29:18.343Z,21.97
2023-01-09T19:31:46.794Z,17.67
2023-01-09T19:34:13.682Z,17.33
2023-01-09T19:36:40.302Z,18.57
2023-01-09T19:39:07.418Z,18.30
2023-01-09T19:41:34.088Z,18.70
2023-01-09T19:44:00.791Z,18.97
2023-01-09T19:46:28.608Z,19.83
2023-01-09T19:48:59.042Z,19.33
2023-01-09T19:51:25.991Z,18.90
2023-01-09T19:53:58.194Z,19.03
2023-01-09T19:56:28.560Z,19.83
2023-01-09T19:58:56.476Z,20.70
2023-01-09T20:01:25.176Z,22.90
2023-01-09T20:03:52.326Z,20.20
2023-01-09T20:06:22.448Z,20.13
2023-01-09T20:08:53.730Z,29.00
2023-01-09T20:11:20.804Z,26.90
2023-01-09T20:13:47.339Z,28.10
2023-01-09T20:16:14.940Z,25.83
2023-01-09T20:18:41.447Z,27.20
2023-01-09T20:21:07.876Z,40.90
2023-01-09T20:23:34.464Z,22.10
2023-01-09T20:26:01.297Z,18.53
2023-01-09T20:28:28.274Z,31.10
2023-01-09T20:30:54.990Z,29.10
2023-01-09T20:33:21.881Z,24.07
2023-01-09T20:35:48.446Z,36.37
2023-01-09T20:38:15.149Z,21.90
2023-01-09T20:40:44.100Z,15.73
2023-01-09T20:43:14.579Z,12.80
2023-01-09T20:45:41.478Z,10.67
2023-01-09T20:50:50.058Z,11.97
2023-01-09T20:53:16.787Z,15.23
2023-01-09T20:55:43.424Z,12.23
2023-01-09T20:58:10.084Z,18.60
2023-01-09T21:00:36.654Z,20.57
2023-01-09T21:03:05.026Z,15.93
2023-01-09T21:05:33.133Z,17.23
2023-01-09T21:07:59.628Z,11.03
2023-01-09T21:10:26.142Z,11.27
2023-01-09T21:12:52.875Z,12.80
2023-01-09T21:15:23.409Z,13.73
2023-01-09T21:17:49.889Z,13.00
2023-01-09T21:20:16.466Z,13.20
2023-01-09T21:22:43.133Z,13.13
2023-01-09T21:25:09.858Z,10.70
2023-01-09T21:27:41.134Z,9.80
2023-01-09T21:30:08.286Z,10.20
2023-01-09T21:32:34.908Z,13.43
2023-01-09T21:35:05.272Z,10.23
2023-01-09T21:37:33.452Z,17.50
2023-01-09T21:40:00.672Z,12.27
2023-01-09T21:42:45.675Z,15.80
2023-01-09T21:45:35.038Z,10.50
2023-01-09T21:48:08.161Z,12.83
2023-01-09T21:50:35.782Z,11.27
2023-01-09T21:53:02.378Z,9.70
2023-01-09T21:55:29.063Z,10.57
2023-01-09T21:57:56.328Z,10.97
2023-01-09T22:00:23.430Z,9.27
2023-01-09T22:02:50.090Z,8.37
2023-01-09T22:05:16.703Z,7.80
2023-01-09T22:07:46.712Z,7.70
2023-01-09T22:10:13.232Z,8.23
2023-01-09T22:12:39.883Z,9.77
2023-01-09T22:15:06.659Z,8.40
2023-01-09T22:17:33.170Z,8.67
2023-01-09T22:19:59.611Z,7.37
2023-01-09T22:22:26.117Z,7.30
2023-01-09T22:24:53.377Z,7.17
2023-01-09T22:27:19.940Z,8.07
2023-01-09T22:29:46.359Z,7.97
2023-01-09T22:32:12.835Z,8.30
2023-01-09T22:34:39.301Z,7.10
2023-01-09T22:37:05.966Z,7.07
2023-01-09T22:39:32.476Z,7.97
2023-01-09T22:41:59.204Z,8.23
2023-01-09T22:44:25.695Z,8.80
2023-01-09T22:46:52.204Z,8.70
2023-01-09T22:49:18.639Z,9.07
2023-01-09T22:51:45.113Z,8.40
2023-01-09T22:54:11.635Z,8.23
2023-01-09T22:56:38.145Z,8.40
2023-01-09T22:59:04.741Z,9.37
2023-01-09T23:01:31.452Z,9.37
2023-01-09T23:03:57.891Z,10.10
2023-01-09T23:06:25.340Z,8.97
2023-01-09T23:08:52.882Z,8.87
2023-01-09T23:11:41.841Z,8.77
2023-01-09T23:14:08.530Z,8.27
2023-01-09T23:16:35.032Z,9.37
2023-01-09T23:19:01.776Z,9.47
2023-01-09T23:21:28.355Z,10.20
2023-01-09T23:23:54.823Z,9.93
2023-01-09T23:26:21.282Z,8.93
2023-01-09T23:28:47.793Z,11.07
2023-01-09T23:31:15.667Z,8.43
2023-01-09T23:33:42.221Z,9.17
2023-01-09T23:36:08.828Z,9.80
2023-01-09T23:38:35.266Z,9.63
2023-01-09T23:41:04.881Z,10.07
2023-01-09T23:43:31.339Z,8.73
2023-01-09T23:45:57.835Z,9.33
2023-01-09T23:48:27.218Z,8.50
2023-01-09T23:50:54.243Z,9.63
2023-01-09T23:53:21.450Z,8.83
2023-01-09T23:55:51.069Z,8.77
2023-01-09T23:58:17.627Z,9.60
